sensor_id;sensor_type;location;lat;lon;timestamp;temperature;humidity
79698;SHT31;69168;42.708;23.286;2023-07-30T00:00:35;23.20;54.05
79698;SHT31;69168;42.708;23.286;2023-07-30T00:03:00;23.23;54.34
79698;SHT31;69168;42.708;23.286;2023-07-30T00:05:26;23.23;53.91
79698;SHT31;69168;42.708;23.286;2023-07-30T00:07:51;23.15;54.36
79698;SHT31;69168;42.708;23.286;2023-07-30T00:10:17;22.98;54.89
79698;SHT31;69168;42.708;23.286;2023-07-30T00:12:43;23.01;54.66
79698;SHT31;69168;42.708;23.286;2023-07-30T00:15:08;23.12;54.26
79698;SHT31;69168;42.708;23.286;2023-07-30T00:17:34;23.12;54.63
79698;SHT31;69168;42.708;23.286;2023-07-30T00:19:59;23.08;54.72
79698;SHT31;69168;42.708;23.286;2023-07-30T00:22:25;23.02;55.12
79698;SHT31;69168;42.708;23.286;2023-07-30T00:24:50;22.98;55.27
79698;SHT31;69168;42.708;23.286;2023-07-30T00:27:16;22.94;55.13
79698;SHT31;69168;42.708;23.286;2023-07-30T00:29:41;22.94;54.76
79698;SHT31;69168;42.708;23.286;2023-07-30T00:32:07;22.79;55.23
79698;SHT31;69168;42.708;23.286;2023-07-30T00:34:32;22.84;55.45
79698;SHT31;69168;42.708;23.286;2023-07-30T00:36:58;22.84;54.76
79698;SHT31;69168;42.708;23.286;2023-07-30T00:39:23;22.85;54.98
79698;SHT31;69168;42.708;23.286;2023-07-30T00:41:49;22.75;55.66
79698;SHT31;69168;42.708;23.286;2023-07-30T00:44:14;22.71;55.66
79698;SHT31;69168;42.708;23.286;2023-07-30T00:46:40;22.53;56.35
79698;SHT31;69168;42.708;23.286;2023-07-30T00:49:06;22.43;56.89
79698;SHT31;69168;42.708;23.286;2023-07-30T00:51:33;22.51;56.54
79698;SHT31;69168;42.708;23.286;2023-07-30T00:54:00;22.51;56.54
79698;SHT31;69168;42.708;23.286;2023-07-30T00:56:26;22.32;57.17
79698;SHT31;69168;42.708;23.286;2023-07-30T00:58:52;22.33;57.00
79698;SHT31;69168;42.708;23.286;2023-07-30T01:01:18;22.26;57.07
79698;SHT31;69168;42.708;23.286;2023-07-30T01:03:43;22.14;57.40
79698;SHT31;69168;42.708;23.286;2023-07-30T01:06:10;22.33;56.66
79698;SHT31;69168;42.708;23.286;2023-07-30T01:08:35;22.40;56.33
79698;SHT31;69168;42.708;23.286;2023-07-30T01:11:02;22.19;56.81
79698;SHT31;69168;42.708;23.286;2023-07-30T01:13:31;22.13;56.88
79698;SHT31;69168;42.708;23.286;2023-07-30T01:15:58;21.79;56.85
79698;SHT31;69168;42.708;23.286;2023-07-30T01:18:23;21.81;57.36
79698;SHT31;69168;42.708;23.286;2023-07-30T01:20:53;21.78;57.24
79698;SHT31;69168;42.708;23.286;2023-07-30T01:23:18;21.68;57.54
79698;SHT31;69168;42.708;23.286;2023-07-30T01:25:44;21.61;57.50
79698;SHT31;69168;42.708;23.286;2023-07-30T01:28:12;21.48;57.76
79698;SHT31;69168;42.708;23.286;2023-07-30T01:30:41;21.40;58.20
79698;SHT31;69168;42.708;23.286;2023-07-30T01:33:10;21.38;57.93
79698;SHT31;69168;42.708;23.286;2023-07-30T01:35:36;21.43;57.81
79698;SHT31;69168;42.708;23.286;2023-07-30T01:38:03;21.50;57.64
79698;SHT31;69168;42.708;23.286;2023-07-30T01:40:31;21.50;57.69
79698;SHT31;69168;42.708;23.286;2023-07-30T01:42:57;21.38;57.50
79698;SHT31;69168;42.708;23.286;2023-07-30T01:45:22;21.24;57.96
79698;SHT31;69168;42.708;23.286;2023-07-30T01:47:48;21.45;57.75
79698;SHT31;69168;42.708;23.286;2023-07-30T01:50:13;21.55;57.18
79698;SHT31;69168;42.708;23.286;2023-07-30T01:52:40;21.36;57.80
79698;SHT31;69168;42.708;23.286;2023-07-30T01:55:06;21.31;57.95
79698;SHT31;69168;42.708;23.286;2023-07-30T01:57:31;21.37;57.59
79698;SHT31;69168;42.708;23.286;2023-07-30T01:59:57;21.16;58.00
79698;SHT31;69168;42.708;23.286;2023-07-30T02:02:22;21.13;57.86
79698;SHT31;69168;42.708;23.286;2023-07-30T02:04:48;21.06;58.22
79698;SHT31;69168;42.708;23.286;2023-07-30T02:07:13;20.98;58.37
79698;SHT31;69168;42.708;23.286;2023-07-30T02:09:39;21.03;58.37
79698;SHT31;69168;42.708;23.286;2023-07-30T02:12:04;21.23;58.11
79698;SHT31;69168;42.708;23.286;2023-07-30T02:14:30;21.36;57.81
79698;SHT31;69168;42.708;23.286;2023-07-30T02:16:55;21.31;58.03
79698;SHT31;69168;42.708;23.286;2023-07-30T02:19:21;21.36;58.04
79698;SHT31;69168;42.708;23.286;2023-07-30T02:21:46;21.28;58.37
79698;SHT31;69168;42.708;23.286;2023-07-30T02:24:12;21.50;57.87
79698;SHT31;69168;42.708;23.286;2023-07-30T02:26:38;21.55;57.78
79698;SHT31;69168;42.708;23.286;2023-07-30T02:29:03;21.50;58.02
79698;SHT31;69168;42.708;23.286;2023-07-30T02:31:29;21.43;58.18
79698;SHT31;69168;42.708;23.286;2023-07-30T02:33:54;21.55;57.99
79698;SHT31;69168;42.708;23.286;2023-07-30T02:36:20;21.34;58.34
79698;SHT31;69168;42.708;23.286;2023-07-30T02:38:45;21.20;58.89
79698;SHT31;69168;42.708;23.286;2023-07-30T02:41:11;21.13;59.24
79698;SHT31;69168;42.708;23.286;2023-07-30T02:43:36;21.10;59.36
79698;SHT31;69168;42.708;23.286;2023-07-30T02:46:01;21.23;59.07
79698;SHT31;69168;42.708;23.286;2023-07-30T02:48:27;21.07;59.41
79698;SHT31;69168;42.708;23.286;2023-07-30T02:50:52;20.95;59.88
79698;SHT31;69168;42.708;23.286;2023-07-30T02:53:18;21.02;59.67
79698;SHT31;69168;42.708;23.286;2023-07-30T02:55:43;20.96;59.85
79698;SHT31;69168;42.708;23.286;2023-07-30T02:58:08;21.07;59.50
79698;SHT31;69168;42.708;23.286;2023-07-30T03:00:34;21.02;59.73
79698;SHT31;69168;42.708;23.286;2023-07-30T03:02:59;21.20;59.23
79698;SHT31;69168;42.708;23.286;2023-07-30T03:05:26;21.09;59.70
79698;SHT31;69168;42.708;23.286;2023-07-30T03:07:52;21.24;59.45
79698;SHT31;69168;42.708;23.286;2023-07-30T03:10:18;21.04;59.86
79698;SHT31;69168;42.708;23.286;2023-07-30T03:12:43;21.17;59.54
79698;SHT31;69168;42.708;23.286;2023-07-30T03:15:09;21.13;59.52
79698;SHT31;69168;42.708;23.286;2023-07-30T03:17:34;21.16;59.33
79698;SHT31;69168;42.708;23.286;2023-07-30T03:20:00;21.02;59.85
79698;SHT31;69168;42.708;23.286;2023-07-30T03:22:25;20.99;60.02
79698;SHT31;69168;42.708;23.286;2023-07-30T03:24:51;20.78;60.63
79698;SHT31;69168;42.708;23.286;2023-07-30T03:27:16;20.88;60.37
79698;SHT31;69168;42.708;23.286;2023-07-30T03:29:42;20.90;60.12
79698;SHT31;69168;42.708;23.286;2023-07-30T03:32:07;20.79;60.50
79698;SHT31;69168;42.708;23.286;2023-07-30T03:34:33;21.02;60.00
79698;SHT31;69168;42.708;23.286;2023-07-30T03:36:58;21.02;59.77
79698;SHT31;69168;42.708;23.286;2023-07-30T03:39:25;20.85;60.45
79698;SHT31;69168;42.708;23.286;2023-07-30T03:41:51;20.76;60.49
79698;SHT31;69168;42.708;23.286;2023-07-30T03:44:16;20.78;60.40
79698;SHT31;69168;42.708;23.286;2023-07-30T03:46:43;20.99;59.88
79698;SHT31;69168;42.708;23.286;2023-07-30T03:49:09;21.17;59.33
79698;SHT31;69168;42.708;23.286;2023-07-30T03:51:34;21.16;59.62
79698;SHT31;69168;42.708;23.286;2023-07-30T03:54:00;21.03;59.76
79698;SHT31;69168;42.708;23.286;2023-07-30T03:56:25;21.06;59.63
79698;SHT31;69168;42.708;23.286;2023-07-30T03:58:51;21.13;59.46
79698;SHT31;69168;42.708;23.286;2023-07-30T04:01:16;21.28;58.89
79698;SHT31;69168;42.708;23.286;2023-07-30T04:03:42;21.09;59.45
79698;SHT31;69168;42.708;23.286;2023-07-30T04:06:07;21.23;59.18
79698;SHT31;69168;42.708;23.286;2023-07-30T04:08:33;21.27;58.97
79698;SHT31;69168;42.708;23.286;2023-07-30T04:10:58;21.27;59.02
79698;SHT31;69168;42.708;23.286;2023-07-30T04:13:24;21.09;59.13
79698;SHT31;69168;42.708;23.286;2023-07-30T04:15:49;21.14;59.00
79698;SHT31;69168;42.708;23.286;2023-07-30T04:18:15;21.23;58.57
79698;SHT31;69168;42.708;23.286;2023-07-30T04:20:40;21.37;58.28
79698;SHT31;69168;42.708;23.286;2023-07-30T04:23:06;21.38;58.07
79698;SHT31;69168;42.708;23.286;2023-07-30T04:25:31;21.53;57.18
79698;SHT31;69168;42.708;23.286;2023-07-30T04:27:56;21.53;56.86
79698;SHT31;69168;42.708;23.286;2023-07-30T04:30:22;21.57;56.92
79698;SHT31;69168;42.708;23.286;2023-07-30T04:32:47;21.59;56.40
79698;SHT31;69168;42.708;23.286;2023-07-30T04:35:13;21.62;56.62
79698;SHT31;69168;42.708;23.286;2023-07-30T04:37:38;21.59;56.97
79698;SHT31;69168;42.708;23.286;2023-07-30T04:40:04;21.65;57.36
79698;SHT31;69168;42.708;23.286;2023-07-30T04:42:30;21.69;57.06
79698;SHT31;69168;42.708;23.286;2023-07-30T04:44:55;21.79;56.85
79698;SHT31;69168;42.708;23.286;2023-07-30T04:47:21;21.74;56.87
79698;SHT31;69168;42.708;23.286;2023-07-30T04:49:46;21.78;56.67
79698;SHT31;69168;42.708;23.286;2023-07-30T04:52:11;21.44;57.51
79698;SHT31;69168;42.708;23.286;2023-07-30T04:54:37;21.28;57.70
79698;SHT31;69168;42.708;23.286;2023-07-30T04:57:03;21.31;57.78
79698;SHT31;69168;42.708;23.286;2023-07-30T04:59:28;21.30;58.10
79698;SHT31;69168;42.708;23.286;2023-07-30T05:01:54;21.20;58.37
79698;SHT31;69168;42.708;23.286;2023-07-30T05:04:19;21.31;58.24
79698;SHT31;69168;42.708;23.286;2023-07-30T05:06:45;21.48;57.95
79698;SHT31;69168;42.708;23.286;2023-07-30T05:09:10;21.48;57.91
79698;SHT31;69168;42.708;23.286;2023-07-30T05:11:38;21.51;58.09
79698;SHT31;69168;42.708;23.286;2023-07-30T05:14:03;21.54;58.26
79698;SHT31;69168;42.708;23.286;2023-07-30T05:16:29;21.64;57.93
79698;SHT31;69168;42.708;23.286;2023-07-30T05:18:54;21.79;57.71
79698;SHT31;69168;42.708;23.286;2023-07-30T05:21:20;21.66;58.13
79698;SHT31;69168;42.708;23.286;2023-07-30T05:23:45;21.45;57.89
79698;SHT31;69168;42.708;23.286;2023-07-30T05:26:11;21.44;58.23
79698;SHT31;69168;42.708;23.286;2023-07-30T05:28:36;21.37;58.66
79698;SHT31;69168;42.708;23.286;2023-07-30T05:31:02;21.62;57.72
79698;SHT31;69168;42.708;23.286;2023-07-30T05:33:27;21.72;57.78
79698;SHT31;69168;42.708;23.286;2023-07-30T05:35:53;21.93;57.10
79698;SHT31;69168;42.708;23.286;2023-07-30T05:38:18;21.75;57.62
79698;SHT31;69168;42.708;23.286;2023-07-30T05:40:44;21.85;57.20
79698;SHT31;69168;42.708;23.286;2023-07-30T05:43:09;21.93;57.36
79698;SHT31;69168;42.708;23.286;2023-07-30T05:45:34;21.83;57.65
79698;SHT31;69168;42.708;23.286;2023-07-30T05:48:00;22.03;56.78
79698;SHT31;69168;42.708;23.286;2023-07-30T05:50:26;22.08;57.14
79698;SHT31;69168;42.708;23.286;2023-07-30T05:52:51;22.06;57.40
79698;SHT31;69168;42.708;23.286;2023-07-30T05:55:16;22.13;56.80
79698;SHT31;69168;42.708;23.286;2023-07-30T05:57:42;22.10;56.94
79698;SHT31;69168;42.708;23.286;2023-07-30T06:00:08;22.20;56.70
79698;SHT31;69168;42.708;23.286;2023-07-30T06:02:33;22.12;56.81
79698;SHT31;69168;42.708;23.286;2023-07-30T06:04:59;22.33;56.25
79698;SHT31;69168;42.708;23.286;2023-07-30T06:07:24;22.51;56.05
79698;SHT31;69168;42.708;23.286;2023-07-30T06:09:50;22.32;56.75
79698;SHT31;69168;42.708;23.286;2023-07-30T06:12:15;22.33;55.96
79698;SHT31;69168;42.708;23.286;2023-07-30T06:14:41;22.30;56.35
79698;SHT31;69168;42.708;23.286;2023-07-30T06:17:06;22.40;56.34
79698;SHT31;69168;42.708;23.286;2023-07-30T06:19:32;22.46;55.72
79698;SHT31;69168;42.708;23.286;2023-07-30T06:21:57;22.44;55.51
79698;SHT31;69168;42.708;23.286;2023-07-30T06:24:23;22.51;55.61
79698;SHT31;69168;42.708;23.286;2023-07-30T06:26:48;22.58;56.01
79698;SHT31;69168;42.708;23.286;2023-07-30T06:29:13;22.61;55.66
79698;SHT31;69168;42.708;23.286;2023-07-30T06:31:39;22.71;55.09
79698;SHT31;69168;42.708;23.286;2023-07-30T06:34:04;22.96;54.66
79698;SHT31;69168;42.708;23.286;2023-07-30T06:36:30;22.96;54.94
79698;SHT31;69168;42.708;23.286;2023-07-30T06:38:56;23.10;54.69
79698;SHT31;69168;42.708;23.286;2023-07-30T06:41:21;23.26;53.75
79698;SHT31;69168;42.708;23.286;2023-07-30T06:43:47;23.23;53.96
79698;SHT31;69168;42.708;23.286;2023-07-30T06:46:12;23.20;54.37
79698;SHT31;69168;42.708;23.286;2023-07-30T06:48:38;23.29;53.44
79698;SHT31;69168;42.708;23.286;2023-07-30T06:51:06;23.19;53.83
79698;SHT31;69168;42.708;23.286;2023-07-30T06:53:33;23.43;53.68
79698;SHT31;69168;42.708;23.286;2023-07-30T06:55:58;23.49;53.39
79698;SHT31;69168;42.708;23.286;2023-07-30T06:58:23;23.53;53.61
79698;SHT31;69168;42.708;23.286;2023-07-30T07:00:49;23.60;53.47
79698;SHT31;69168;42.708;23.286;2023-07-30T07:03:14;23.74;53.23
79698;SHT31;69168;42.708;23.286;2023-07-30T07:05:40;23.81;52.08
79698;SHT31;69168;42.708;23.286;2023-07-30T07:08:05;23.94;51.97
79698;SHT31;69168;42.708;23.286;2023-07-30T07:10:31;24.12;51.12
79698;SHT31;69168;42.708;23.286;2023-07-30T07:12:56;24.09;51.29
79698;SHT31;69168;42.708;23.286;2023-07-30T07:15:22;24.01;51.62
79698;SHT31;69168;42.708;23.286;2023-07-30T07:17:47;24.10;50.48
79698;SHT31;69168;42.708;23.286;2023-07-30T07:20:13;24.09;50.63
79698;SHT31;69168;42.708;23.286;2023-07-30T07:22:38;24.06;51.21
79698;SHT31;69168;42.708;23.286;2023-07-30T07:25:04;24.06;51.08
79698;SHT31;69168;42.708;23.286;2023-07-30T07:27:29;24.12;50.20
79698;SHT31;69168;42.708;23.286;2023-07-30T07:29:55;24.23;50.00
79698;SHT31;69168;42.708;23.286;2023-07-30T07:32:21;24.35;50.64
79698;SHT31;69168;42.708;23.286;2023-07-30T07:34:48;24.41;50.57
79698;SHT31;69168;42.708;23.286;2023-07-30T07:37:14;24.53;49.58
79698;SHT31;69168;42.708;23.286;2023-07-30T07:39:44;24.57;49.83
79698;SHT31;69168;42.708;23.286;2023-07-30T07:42:10;24.53;50.01
79698;SHT31;69168;42.708;23.286;2023-07-30T07:44:35;24.50;49.12
79698;SHT31;69168;42.708;23.286;2023-07-30T07:47:01;24.50;47.58
79698;SHT31;69168;42.708;23.286;2023-07-30T07:49:27;24.63;48.08
79698;SHT31;69168;42.708;23.286;2023-07-30T07:51:52;24.71;48.71
79698;SHT31;69168;42.708;23.286;2023-07-30T07:54:17;24.71;49.34
79698;SHT31;69168;42.708;23.286;2023-07-30T07:56:43;24.74;48.92
79698;SHT31;69168;42.708;23.286;2023-07-30T07:59:08;24.75;48.16
79698;SHT31;69168;42.708;23.286;2023-07-30T08:01:34;24.83;47.95
79698;SHT31;69168;42.708;23.286;2023-07-30T08:03:59;24.83;47.66
79698;SHT31;69168;42.708;23.286;2023-07-30T08:06:25;24.83;47.61
79698;SHT31;69168;42.708;23.286;2023-07-30T08:08:50;24.90;48.11
79698;SHT31;69168;42.708;23.286;2023-07-30T08:11:16;25.01;47.93
79698;SHT31;69168;42.708;23.286;2023-07-30T08:13:41;25.04;47.82
79698;SHT31;69168;42.708;23.286;2023-07-30T08:16:07;25.12;47.87
79698;SHT31;69168;42.708;23.286;2023-07-30T08:18:32;25.20;46.60
79698;SHT31;69168;42.708;23.286;2023-07-30T08:20:59;25.25;47.17
79698;SHT31;69168;42.708;23.286;2023-07-30T08:23:24;25.30;47.02
79698;SHT31;69168;42.708;23.286;2023-07-30T08:25:50;25.42;46.78
79698;SHT31;69168;42.708;23.286;2023-07-30T08:28:15;25.78;45.63
79698;SHT31;69168;42.708;23.286;2023-07-30T08:30:41;25.66;45.48
79698;SHT31;69168;42.708;23.286;2023-07-30T08:33:06;25.87;44.94
79698;SHT31;69168;42.708;23.286;2023-07-30T08:35:32;26.04;43.76
79698;SHT31;69168;42.708;23.286;2023-07-30T08:37:57;25.85;44.50
79698;SHT31;69168;42.708;23.286;2023-07-30T08:40:24;25.85;45.22
79698;SHT31;69168;42.708;23.286;2023-07-30T08:42:53;25.90;45.37
79698;SHT31;69168;42.708;23.286;2023-07-30T08:45:19;25.85;44.99
79698;SHT31;69168;42.708;23.286;2023-07-30T08:47:45;25.91;44.66
79698;SHT31;69168;42.708;23.286;2023-07-30T08:50:11;25.98;44.79
79698;SHT31;69168;42.708;23.286;2023-07-30T08:52:37;26.05;43.53
79698;SHT31;69168;42.708;23.286;2023-07-30T08:55:04;26.11;44.18
79698;SHT31;69168;42.708;23.286;2023-07-30T08:57:30;26.11;43.49
79698;SHT31;69168;42.708;23.286;2023-07-30T09:00:00;26.22;42.90
79698;SHT31;69168;42.708;23.286;2023-07-30T09:02:34;26.19;42.50
79698;SHT31;69168;42.708;23.286;2023-07-30T09:05:03;26.24;42.67
79698;SHT31;69168;42.708;23.286;2023-07-30T09:07:29;26.33;42.52
79698;SHT31;69168;42.708;23.286;2023-07-30T09:09:55;26.45;42.31
79698;SHT31;69168;42.708;23.286;2023-07-30T09:12:28;26.36;41.69
79698;SHT31;69168;42.708;23.286;2023-07-30T09:14:54;26.36;42.16
79698;SHT31;69168;42.708;23.286;2023-07-30T09:17:19;26.43;43.38
79698;SHT31;69168;42.708;23.286;2023-07-30T09:19:45;26.60;43.35
79698;SHT31;69168;42.708;23.286;2023-07-30T09:22:24;26.80;40.66
79698;SHT31;69168;42.708;23.286;2023-07-30T09:24:49;26.69;40.93
79698;SHT31;69168;42.708;23.286;2023-07-30T09:27:20;26.73;42.46
79698;SHT31;69168;42.708;23.286;2023-07-30T09:29:52;26.84;40.99
79698;SHT31;69168;42.708;23.286;2023-07-30T09:32:18;26.82;39.36
79698;SHT31;69168;42.708;23.286;2023-07-30T09:34:45;26.83;40.33
79698;SHT31;69168;42.708;23.286;2023-07-30T09:37:10;27.00;39.45
79698;SHT31;69168;42.708;23.286;2023-07-30T09:39:37;27.12;38.35
79698;SHT31;69168;42.708;23.286;2023-07-30T09:42:03;27.05;39.13
79698;SHT31;69168;42.708;23.286;2023-07-30T09:44:31;27.20;39.44
79698;SHT31;69168;42.708;23.286;2023-07-30T09:46:57;27.34;39.66
79698;SHT31;69168;42.708;23.286;2023-07-30T09:49:23;27.37;39.81
79698;SHT31;69168;42.708;23.286;2023-07-30T09:51:49;27.48;39.53
79698;SHT31;69168;42.708;23.286;2023-07-30T09:54:16;27.59;38.74
79698;SHT31;69168;42.708;23.286;2023-07-30T09:56:42;27.73;36.84
79698;SHT31;69168;42.708;23.286;2023-07-30T09:59:08;27.70;36.32
79698;SHT31;69168;42.708;23.286;2023-07-30T10:01:43;27.69;36.90
79698;SHT31;69168;42.708;23.286;2023-07-30T10:04:10;27.69;36.59
79698;SHT31;69168;42.708;23.286;2023-07-30T10:06:58;27.70;36.15
79698;SHT31;69168;42.708;23.286;2023-07-30T10:09:23;27.86;34.82
79698;SHT31;69168;42.708;23.286;2023-07-30T10:11:52;27.93;35.24
79698;SHT31;69168;42.708;23.286;2023-07-30T10:14:21;28.12;34.60
79698;SHT31;69168;42.708;23.286;2023-07-30T10:16:56;28.11;34.74
79698;SHT31;69168;42.708;23.286;2023-07-30T10:19:25;28.24;35.24
79698;SHT31;69168;42.708;23.286;2023-07-30T10:21:50;28.28;34.66
79698;SHT31;69168;42.708;23.286;2023-07-30T10:24:16;28.34;35.02
79698;SHT31;69168;42.708;23.286;2023-07-30T10:26:42;28.59;34.53
79698;SHT31;69168;42.708;23.286;2023-07-30T10:29:18;28.60;35.29
79698;SHT31;69168;42.708;23.286;2023-07-30T10:31:55;28.73;36.57
79698;SHT31;69168;42.708;23.286;2023-07-30T10:34:21;28.92;36.91
79698;SHT31;69168;42.708;23.286;2023-07-30T10:36:49;29.15;34.98
79698;SHT31;69168;42.708;23.286;2023-07-30T10:39:21;29.14;35.70
79698;SHT31;69168;42.708;23.286;2023-07-30T10:41:54;29.30;35.91
79698;SHT31;69168;42.708;23.286;2023-07-30T10:44:25;29.45;35.32
79698;SHT31;69168;42.708;23.286;2023-07-30T10:46:55;29.79;34.87
79698;SHT31;69168;42.708;23.286;2023-07-30T10:49:21;29.96;33.48
79698;SHT31;69168;42.708;23.286;2023-07-30T10:51:47;29.96;33.69
79698;SHT31;69168;42.708;23.286;2023-07-30T10:54:12;29.94;33.09
79698;SHT31;69168;42.708;23.286;2023-07-30T10:56:38;30.06;33.82
79698;SHT31;69168;42.708;23.286;2023-07-30T10:59:05;30.27;33.09
79698;SHT31;69168;42.708;23.286;2023-07-30T11:01:36;30.31;33.04
79698;SHT31;69168;42.708;23.286;2023-07-30T11:04:16;30.30;32.07
79698;SHT31;69168;42.708;23.286;2023-07-30T11:06:47;30.51;33.50
79698;SHT31;69168;42.708;23.286;2023-07-30T11:09:23;30.92;31.40
79698;SHT31;69168;42.708;23.286;2023-07-30T11:11:49;31.06;30.86
79698;SHT31;69168;42.708;23.286;2023-07-30T11:14:19;31.24;30.41
79698;SHT31;69168;42.708;23.286;2023-07-30T11:17:00;31.23;30.55
79698;SHT31;69168;42.708;23.286;2023-07-30T11:19:26;31.44;30.31
79698;SHT31;69168;42.708;23.286;2023-07-30T11:21:53;31.55;31.05
79698;SHT31;69168;42.708;23.286;2023-07-30T11:24:19;31.68;31.07
79698;SHT31;69168;42.708;23.286;2023-07-30T11:26:44;31.90;31.56
79698;SHT31;69168;42.708;23.286;2023-07-30T11:29:15;32.16;29.46
79698;SHT31;69168;42.708;23.286;2023-07-30T11:31:42;32.41;28.72
79698;SHT31;69168;42.708;23.286;2023-07-30T11:34:07;32.43;28.45
79698;SHT31;69168;42.708;23.286;2023-07-30T11:36:33;32.45;28.50
79698;SHT31;69168;42.708;23.286;2023-07-30T11:38:59;32.68;29.42
79698;SHT31;69168;42.708;23.286;2023-07-30T11:41:25;32.92;28.20
79698;SHT31;69168;42.708;23.286;2023-07-30T11:43:50;33.18;27.86
79698;SHT31;69168;42.708;23.286;2023-07-30T11:46:17;33.47;27.52
79698;SHT31;69168;42.708;23.286;2023-07-30T11:48:51;33.74;28.50
79698;SHT31;69168;42.708;23.286;2023-07-30T11:51:26;33.91;28.21
79698;SHT31;69168;42.708;23.286;2023-07-30T11:53:56;34.02;27.59
79698;SHT31;69168;42.708;23.286;2023-07-30T11:56:27;34.13;27.45
79698;SHT31;69168;42.708;23.286;2023-07-30T11:58:59;34.46;27.10
79698;SHT31;69168;42.708;23.286;2023-07-30T12:01:27;34.32;26.59
79698;SHT31;69168;42.708;23.286;2023-07-30T12:03:54;34.33;27.02
79698;SHT31;69168;42.708;23.286;2023-07-30T12:06:20;34.73;27.31
79698;SHT31;69168;42.708;23.286;2023-07-30T12:08:48;34.88;26.02
79698;SHT31;69168;42.708;23.286;2023-07-30T12:11:14;35.08;26.51
79698;SHT31;69168;42.708;23.286;2023-07-30T12:13:44;34.98;26.00
79698;SHT31;69168;42.708;23.286;2023-07-30T12:16:10;35.19;26.27
79698;SHT31;69168;42.708;23.286;2023-07-30T12:18:37;35.77;26.23
79698;SHT31;69168;42.708;23.286;2023-07-30T12:21:03;36.03;25.54
79698;SHT31;69168;42.708;23.286;2023-07-30T12:23:32;36.16;24.94
79698;SHT31;69168;42.708;23.286;2023-07-30T12:25:57;36.62;24.96
79698;SHT31;69168;42.708;23.286;2023-07-30T12:28:23;35.84;24.88
79698;SHT31;69168;42.708;23.286;2023-07-30T12:30:48;36.08;26.09
79698;SHT31;69168;42.708;23.286;2023-07-30T12:33:14;37.00;24.80
79698;SHT31;69168;42.708;23.286;2023-07-30T12:35:40;36.64;25.42
79698;SHT31;69168;42.708;23.286;2023-07-30T12:38:06;35.50;25.81
79698;SHT31;69168;42.708;23.286;2023-07-30T12:40:31;34.56;26.24
79698;SHT31;69168;42.708;23.286;2023-07-30T12:43:01;34.18;27.02
79698;SHT31;69168;42.708;23.286;2023-07-30T12:45:27;34.09;26.61
79698;SHT31;69168;42.708;23.286;2023-07-30T12:47:52;33.94;27.89
79698;SHT31;69168;42.708;23.286;2023-07-30T12:50:18;33.87;28.45
79698;SHT31;69168;42.708;23.286;2023-07-30T12:52:43;34.43;26.86
79698;SHT31;69168;42.708;23.286;2023-07-30T12:55:09;34.82;26.55
79698;SHT31;69168;42.708;23.286;2023-07-30T12:57:35;35.69;25.78
79698;SHT31;69168;42.708;23.286;2023-07-30T13:00:01;36.51;24.12
79698;SHT31;69168;42.708;23.286;2023-07-30T13:02:27;36.23;24.15
79698;SHT31;69168;42.708;23.286;2023-07-30T13:04:52;35.39;24.99
79698;SHT31;69168;42.708;23.286;2023-07-30T13:07:18;34.56;26.87
79698;SHT31;69168;42.708;23.286;2023-07-30T13:09:45;34.13;26.46
79698;SHT31;69168;42.708;23.286;2023-07-30T13:12:11;34.15;26.31
79698;SHT31;69168;42.708;23.286;2023-07-30T13:14:37;34.95;26.42
79698;SHT31;69168;42.708;23.286;2023-07-30T13:17:02;36.30;25.70
79698;SHT31;69168;42.708;23.286;2023-07-30T13:19:28;36.68;25.31
79698;SHT31;69168;42.708;23.286;2023-07-30T13:21:55;36.25;25.45
79698;SHT31;69168;42.708;23.286;2023-07-30T13:24:20;36.38;25.32
79698;SHT31;69168;42.708;23.286;2023-07-30T13:26:45;36.07;26.69
79698;SHT31;69168;42.708;23.286;2023-07-30T13:29:11;36.53;25.81
79698;SHT31;69168;42.708;23.286;2023-07-30T13:31:36;36.58;25.77
79698;SHT31;69168;42.708;23.286;2023-07-30T13:34:02;36.62;25.05
79698;SHT31;69168;42.708;23.286;2023-07-30T13:36:27;36.07;25.95
79698;SHT31;69168;42.708;23.286;2023-07-30T13:38:54;35.65;25.27
79698;SHT31;69168;42.708;23.286;2023-07-30T13:41:20;35.18;26.31
79698;SHT31;69168;42.708;23.286;2023-07-30T13:43:45;34.77;26.22
79698;SHT31;69168;42.708;23.286;2023-07-30T13:46:11;34.68;25.86
79698;SHT31;69168;42.708;23.286;2023-07-30T13:48:36;34.71;25.94
79698;SHT31;69168;42.708;23.286;2023-07-30T13:51:02;35.04;26.47
79698;SHT31;69168;42.708;23.286;2023-07-30T13:53:28;35.21;26.73
79698;SHT31;69168;42.708;23.286;2023-07-30T13:55:54;35.08;25.70
79698;SHT31;69168;42.708;23.286;2023-07-30T13:58:19;35.05;25.59
79698;SHT31;69168;42.708;23.286;2023-07-30T14:00:44;34.70;26.00
79698;SHT31;69168;42.708;23.286;2023-07-30T14:03:10;34.26;27.17
79698;SHT31;69168;42.708;23.286;2023-07-30T14:05:38;34.06;27.28
79698;SHT31;69168;42.708;23.286;2023-07-30T14:08:04;34.00;27.43
79698;SHT31;69168;42.708;23.286;2023-07-30T14:10:29;34.02;27.49
79698;SHT31;69168;42.708;23.286;2023-07-30T14:12:54;34.68;26.49
79698;SHT31;69168;42.708;23.286;2023-07-30T14:15:20;34.63;26.79
79698;SHT31;69168;42.708;23.286;2023-07-30T14:17:45;34.53;26.29
79698;SHT31;69168;42.708;23.286;2023-07-30T14:20:11;33.94;27.48
79698;SHT31;69168;42.708;23.286;2023-07-30T14:22:36;33.56;27.68
79698;SHT31;69168;42.708;23.286;2023-07-30T14:25:02;33.53;27.72
79698;SHT31;69168;42.708;23.286;2023-07-30T14:27:28;33.23;28.56
79698;SHT31;69168;42.708;23.286;2023-07-30T14:29:53;32.82;29.51
79698;SHT31;69168;42.708;23.286;2023-07-30T14:32:19;32.82;29.82
79698;SHT31;69168;42.708;23.286;2023-07-30T14:34:46;33.06;29.50
79698;SHT31;69168;42.708;23.286;2023-07-30T14:37:11;32.88;30.36
79698;SHT31;69168;42.708;23.286;2023-07-30T14:39:37;32.96;29.91
79698;SHT31;69168;42.708;23.286;2023-07-30T14:42:02;33.57;29.14
79698;SHT31;69168;42.708;23.286;2023-07-30T14:44:28;33.57;29.00
79698;SHT31;69168;42.708;23.286;2023-07-30T14:46:53;33.76;29.19
79698;SHT31;69168;42.708;23.286;2023-07-30T14:49:19;34.11;28.56
79698;SHT31;69168;42.708;23.286;2023-07-30T14:51:45;34.42;27.39
79698;SHT31;69168;42.708;23.286;2023-07-30T14:54:10;34.74;26.46
79698;SHT31;69168;42.708;23.286;2023-07-30T14:56:36;34.71;27.70
79698;SHT31;69168;42.708;23.286;2023-07-30T14:59:01;34.49;27.31
79698;SHT31;69168;42.708;23.286;2023-07-30T15:01:29;34.77;27.27
79698;SHT31;69168;42.708;23.286;2023-07-30T15:03:55;35.28;26.30
79698;SHT31;69168;42.708;23.286;2023-07-30T15:06:21;35.22;26.28
79698;SHT31;69168;42.708;23.286;2023-07-30T15:08:47;34.63;26.93